Terminal Aerodrome Forecast
Issued by NWS Charleston, SC

Home | Current Version | Previous Version | Text Only | Print | Product List | Glossary On
Versions: 1 2 3 4 5 6 7 8 9 10 11 12 13 14 15 16 17 18 19 20 21 22 23 24 25 26 27
200
FTUS42 KCHS 232340
TAFCHS
TAF
KCHS 232340Z 2400/2424 VRB06KT P6SM SHRA VCTS SCT015 BKN035CB
     FM240300 22009KT P6SM VCSH SCT020 BKN040
     FM240600 22008KT P6SM SCT015 BKN035
     FM241600 20011KT P6SM VCTS SCT025CB BKN040=

USA.gov is the U.S. government's official web portal to all federal, state and local government web resources and services.